createdAt,value
2019-03-29T00:02:09.028Z,101727.63
2019-03-29T00:04:36.627Z,101727.84
2019-03-29T00:07:05.477Z,101724.87
2019-03-29T00:09:50.907Z,101724.87
2019-03-29T00:12:18.443Z,101725.98
2019-03-29T00:14:46.406Z,101729.19
2019-03-29T00:17:14.374Z,101729.19
2019-03-29T00:19:41.901Z,101721.11
2019-03-29T00:22:09.556Z,101721.11
2019-03-29T00:24:37.438Z,101719.13
2019-03-29T00:27:04.957Z,101710.77
2019-03-29T00:29:32.443Z,101710.77
2019-03-29T00:32:00.052Z,101711.65
2019-03-29T00:34:27.822Z,101703.36
2019-03-29T00:36:55.420Z,101706.51
2019-03-29T00:39:22.948Z,101694.84
2019-03-29T00:41:50.961Z,101694.84
2019-03-29T00:44:18.796Z,101691.94
2019-03-29T00:46:46.323Z,101686.70
2019-03-29T00:49:16.017Z,101688.13
2019-03-29T00:51:43.553Z,101678.48
2019-03-29T00:54:11.419Z,101678.48
2019-03-29T00:56:39.095Z,101675.50
2019-03-29T00:59:06.650Z,101675.50
2019-03-29T01:01:34.278Z,101672.60
2019-03-29T01:04:02.973Z,101671.61
2019-03-29T01:06:30.611Z,101671.61
2019-03-29T01:08:58.178Z,101671.02
2019-03-29T01:11:27.048Z,101669.39
2019-03-29T01:13:54.558Z,101669.39
2019-03-29T01:16:22.034Z,101657.25
2019-03-29T01:18:51.673Z,101654.95
2019-03-29T01:21:19.485Z,101648.94
2019-03-29T01:23:48.226Z,101649.92
2019-03-29T01:26:18.235Z,101649.92
2019-03-29T01:28:48.930Z,101652.69
2019-03-29T01:31:16.922Z,101646.20
2019-03-29T01:33:44.527Z,101646.20
2019-03-29T01:36:15.089Z,101647.08
2019-03-29T01:38:42.993Z,101639.12
2019-03-29T01:41:10.539Z,101639.12
2019-03-29T01:43:38.516Z,101633.92
2019-03-29T01:46:06.065Z,101633.92
2019-03-29T01:48:33.959Z,101624.41
2019-03-29T01:51:03.775Z,101624.01
2019-03-29T01:53:31.391Z,101622.18
2019-03-29T01:55:58.940Z,101617.31
2019-03-29T01:58:26.811Z,101617.31
2019-03-29T02:00:54.444Z,101619.48
2019-03-29T02:03:22.605Z,101619.48
2019-03-29T02:05:50.132Z,101607.64
2019-03-29T02:08:18.027Z,101601.11
2019-03-29T02:10:45.640Z,101600.30
2019-03-29T02:13:13.263Z,101600.41
2019-03-29T02:15:41.121Z,101600.41
2019-03-29T02:18:08.626Z,101596.85
2019-03-29T02:20:36.272Z,101587.62
2019-03-29T02:23:04.138Z,101583.26
2019-03-29T02:25:32.207Z,101579.84
2019-03-29T02:27:59.819Z,101585.63
2019-03-29T02:30:27.389Z,101588.50
2019-03-29T02:32:55.234Z,101573.73
2019-03-29T02:35:24.766Z,101579.95
2019-03-29T02:37:52.379Z,101579.95
2019-03-29T02:40:19.927Z,101575.69
2019-03-29T02:42:47.827Z,101576.66
2019-03-29T02:45:15.412Z,101576.66
2019-03-29T02:47:43.023Z,101574.12
2019-03-29T02:50:10.950Z,101572.47
2019-03-29T02:52:38.947Z,101572.47
2019-03-29T02:55:06.618Z,101568.98
2019-03-29T02:57:34.460Z,101562.39
2019-03-29T03:00:02.078Z,101562.39
2019-03-29T03:02:29.540Z,101572.44
2019-03-29T03:04:57.160Z,101572.44
2019-03-29T03:07:24.772Z,101562.80
2019-03-29T03:09:52.310Z,101562.80
2019-03-29T03:12:19.840Z,101558.44
2019-03-29T03:14:47.708Z,101558.44
2019-03-29T03:17:15.405Z,101561.99
2019-03-29T03:19:42.980Z,101561.99
2019-03-29T03:22:12.815Z,101565.87
2019-03-29T03:24:40.633Z,101565.87
2019-03-29T03:27:08.182Z,101572.53
2019-03-29T03:29:36.187Z,101575.20
2019-03-29T03:32:03.780Z,101575.20
2019-03-29T03:34:31.545Z,101575.74
2019-03-29T03:37:02.495Z,101579.35
2019-03-29T03:39:32.285Z,101575.05
2019-03-29T03:41:59.311Z,101574.69
2019-03-29T03:44:27.067Z,101574.69
2019-03-29T03:46:54.649Z,101574.75
2019-03-29T03:49:22.222Z,101575.22
2019-03-29T03:51:49.788Z,101572.61
2019-03-29T03:54:17.651Z,101570.45
2019-03-29T03:56:45.268Z,101571.39
2019-03-29T03:59:12.903Z,101575.41
2019-03-29T04:01:40.452Z,101581.69
2019-03-29T04:04:08.353Z,101583.06
2019-03-29T04:06:35.956Z,101581.49
2019-03-29T04:09:04.261Z,101581.49
2019-03-29T04:11:32.126Z,101587.77
2019-03-29T04:13:59.702Z,101583.44
2019-03-29T04:16:27.641Z,101583.55
2019-03-29T04:18:55.456Z,101583.55
2019-03-29T04:21:23.010Z,101586.69
2019-03-29T04:23:50.654Z,101581.45
2019-03-29T04:26:18.183Z,101571.85
2019-03-29T04:29:02.778Z,101571.92
2019-03-29T04:31:15.256Z,101571.92
2019-03-29T04:33:42.859Z,101574.23
2019-03-29T04:36:10.485Z,101574.70
2019-03-29T04:38:38.060Z,101574.70
2019-03-29T04:41:05.675Z,101570.77
2019-03-29T04:43:33.251Z,101570.77
2019-03-29T04:46:01.049Z,101569.87
2019-03-29T04:48:28.623Z,101568.05
2019-03-29T04:50:56.158Z,101572.97
2019-03-29T04:53:23.674Z,101574.32
2019-03-29T04:55:51.480Z,101574.32
2019-03-29T04:58:19.111Z,101572.19
2019-03-29T05:00:46.647Z,101575.25
2019-03-29T05:03:14.586Z,101567.80
2019-03-29T05:05:42.409Z,101569.20
2019-03-29T05:08:10.039Z,101567.38
2019-03-29T05:10:37.593Z,101571.74
2019-03-29T05:13:05.208Z,101568.70
2019-03-29T05:15:33.114Z,101562.64
2019-03-29T05:18:00.672Z,101569.75
2019-03-29T05:20:28.239Z,101573.70
2019-03-29T05:22:56.108Z,101573.70
2019-03-29T05:25:23.659Z,101572.33
2019-03-29T05:27:53.099Z,101572.33
2019-03-29T05:30:20.945Z,101574.88
2019-03-29T05:32:48.568Z,101576.55
2019-03-29T05:35:16.245Z,101573.44
2019-03-29T05:37:44.096Z,101571.27
2019-03-29T05:40:11.910Z,101568.64
2019-03-29T05:42:40.539Z,101571.22
2019-03-29T05:45:08.489Z,101571.22
2019-03-29T05:47:35.961Z,101569.37
2019-03-29T05:50:03.419Z,101562.13
2019-03-29T05:52:31.246Z,101558.03
2019-03-29T05:54:58.795Z,101558.03
2019-03-29T05:57:26.409Z,101556.15
2019-03-29T05:59:54.639Z,101562.52
2019-03-29T06:02:24.938Z,101561.52
2019-03-29T06:04:52.478Z,101566.28
2019-03-29T06:07:20.285Z,101567.97
2019-03-29T06:09:47.901Z,101565.78
2019-03-29T06:12:15.449Z,101560.44
2019-03-29T06:14:43.744Z,101560.44
2019-03-29T06:17:11.366Z,101551.81
2019-03-29T06:19:38.936Z,101550.70
2019-03-29T06:22:06.771Z,101551.72
2019-03-29T06:24:34.301Z,101551.72
2019-03-29T06:27:01.852Z,101553.03
2019-03-29T06:29:36.990Z,101545.81
2019-03-29T06:32:04.603Z,101544.21
2019-03-29T06:34:32.125Z,101543.05
2019-03-29T06:36:59.982Z,101541.72
2019-03-29T06:39:27.544Z,101541.72
2019-03-29T06:41:55.134Z,101535.48
2019-03-29T06:44:24.834Z,101537.16
2019-03-29T06:46:52.400Z,101532.13
2019-03-29T06:49:19.927Z,101532.13
2019-03-29T06:51:47.838Z,101536.34
2019-03-29T06:54:15.404Z,101536.34
2019-03-29T06:56:43.076Z,101534.52
2019-03-29T06:59:10.913Z,101541.14
2019-03-29T07:01:38.581Z,101537.54
2019-03-29T07:04:06.136Z,101527.36
2019-03-29T07:06:34.222Z,101527.36
2019-03-29T07:09:01.785Z,101523.77
2019-03-29T07:11:29.381Z,101528.50
2019-03-29T07:13:58.141Z,101528.50
2019-03-29T07:16:25.859Z,101512.09
2019-03-29T07:18:53.511Z,101519.41
2019-03-29T07:21:24.254Z,101520.52
2019-03-29T07:23:51.883Z,101520.52
2019-03-29T07:26:19.417Z,101522.25
2019-03-29T07:28:47.244Z,101522.25
2019-03-29T07:31:14.867Z,101519.81
2019-03-29T07:33:42.474Z,101520.38
2019-03-29T07:36:10.292Z,101517.95
2019-03-29T07:38:37.785Z,101512.39
2019-03-29T07:41:06.661Z,101511.46
2019-03-29T07:43:41.605Z,101514.72
2019-03-29T07:46:09.068Z,101514.72
2019-03-29T07:48:40.212Z,101513.21
2019-03-29T07:51:06.167Z,101512.34
2019-03-29T07:53:34.129Z,101512.34
2019-03-29T07:56:01.728Z,101512.59
2019-03-29T07:58:31.591Z,101512.59
2019-03-29T08:00:59.221Z,101514.48
2019-03-29T08:03:26.765Z,101511.80
2019-03-29T08:05:56.956Z,101516.23
2019-03-29T08:08:31.849Z,101505.68
2019-03-29T08:10:54.274Z,101508.89
2019-03-29T08:13:22.191Z,101504.35
2019-03-29T08:15:52.713Z,101504.66
2019-03-29T08:18:22.140Z,101504.66
2019-03-29T08:20:50.013Z,101496.47
2019-03-29T08:23:17.578Z,101496.47
2019-03-29T08:25:45.202Z,101500.63
2019-03-29T08:28:13.027Z,101500.63
2019-03-29T08:30:40.726Z,101496.66
2019-03-29T08:33:08.356Z,101496.66
2019-03-29T08:35:36.225Z,101498.27
2019-03-29T08:38:06.126Z,101493.47
2019-03-29T08:40:33.013Z,101486.24
2019-03-29T08:43:01.054Z,101486.24
2019-03-29T08:45:28.634Z,101477.66
2019-03-29T08:47:56.334Z,101477.66
2019-03-29T08:50:24.085Z,101476.50
2019-03-29T08:52:51.576Z,101479.44
2019-03-29T08:55:19.544Z,101470.26
2019-03-29T08:57:51.515Z,101468.04
2019-03-29T09:00:19.155Z,101458.58
2019-03-29T09:02:46.792Z,101458.58
2019-03-29T09:05:14.661Z,101457.30
2019-03-29T09:07:45.475Z,101458.05
2019-03-29T09:10:16.283Z,101446.61
2019-03-29T09:12:42.526Z,101444.07
2019-03-29T09:15:13.288Z,101441.75
2019-03-29T09:17:41.167Z,101435.93
2019-03-29T09:20:10.527Z,101440.15
2019-03-29T09:22:38.332Z,101447.82
2019-03-29T09:25:05.920Z,101445.19
2019-03-29T09:27:33.759Z,101440.16
2019-03-29T09:30:04.756Z,101436.43
2019-03-29T09:32:30.648Z,101434.99
2019-03-29T09:34:58.382Z,101435.81
2019-03-29T09:37:25.940Z,101436.06
2019-03-29T09:39:53.485Z,101423.77
2019-03-29T09:42:28.878Z,101425.34
2019-03-29T09:44:51.068Z,101421.81
2019-03-29T09:47:20.319Z,101423.96
2019-03-29T09:49:49.715Z,101416.89
2019-03-29T09:52:17.281Z,101418.75
2019-03-29T09:54:44.875Z,101412.48
2019-03-29T09:57:15.611Z,101402.72
2019-03-29T09:59:41.876Z,101405.02
2019-03-29T10:02:12.052Z,101409.70
2019-03-29T10:04:39.931Z,101400.25
2019-03-29T10:07:07.483Z,101382.53
2019-03-29T10:09:35.055Z,101386.89
2019-03-29T10:12:13.155Z,101377.86
2019-03-29T10:14:33.598Z,101370.25
2019-03-29T10:17:01.283Z,101372.20
2019-03-29T10:19:31.931Z,101367.88
2019-03-29T10:21:59.494Z,101366.17
2019-03-29T10:24:27.487Z,101364.34
2019-03-29T10:26:58.189Z,101364.42
2019-03-29T10:29:25.802Z,101352.95
2019-03-29T10:31:53.706Z,101354.23
2019-03-29T10:34:21.313Z,101349.84
2019-03-29T10:36:50.907Z,101349.59
2019-03-29T10:39:18.751Z,101349.95
2019-03-29T10:41:46.233Z,101344.22
2019-03-29T10:44:13.879Z,101339.78
2019-03-29T10:46:41.769Z,101337.44
2019-03-29T10:49:09.321Z,101341.02
2019-03-29T10:51:36.995Z,101339.67
2019-03-29T10:54:04.842Z,101333.56
2019-03-29T10:56:34.450Z,101333.30
2019-03-29T10:59:02.024Z,101332.33
2019-03-29T11:01:29.895Z,101315.69
2019-03-29T11:03:57.490Z,101313.08
2019-03-29T11:06:26.112Z,101308.12
2019-03-29T11:08:53.967Z,101302.73
2019-03-29T11:11:21.525Z,101296.97
2019-03-29T11:13:49.158Z,101299.91
2019-03-29T11:16:17.018Z,101296.55
2019-03-29T11:18:45.848Z,101293.97
2019-03-29T11:21:13.540Z,101295.33
2019-03-29T11:23:41.363Z,101286.00
2019-03-29T11:26:08.891Z,101288.99
2019-03-29T11:28:36.452Z,101279.34
2019-03-29T11:31:04.293Z,101284.17
2019-03-29T11:33:34.171Z,101280.14
2019-03-29T11:36:02.015Z,101274.73
2019-03-29T11:38:29.834Z,101279.52
2019-03-29T11:40:57.469Z,101274.36
2019-03-29T11:43:26.931Z,101265.70
2019-03-29T11:45:54.547Z,101259.15
2019-03-29T11:48:25.117Z,101265.80
2019-03-29T11:50:52.747Z,101265.94
2019-03-29T11:53:20.600Z,101251.86
2019-03-29T11:55:48.233Z,101250.00
2019-03-29T11:58:17.179Z,101245.86
2019-03-29T12:00:46.521Z,101245.50
2019-03-29T12:03:14.167Z,101241.75
2019-03-29T12:05:47.354Z,101243.36
2019-03-29T12:08:15.340Z,101238.66
2019-03-29T12:10:42.955Z,101235.36
2019-03-29T12:13:10.675Z,101236.58
2019-03-29T12:15:38.412Z,101225.56
2019-03-29T12:18:08.851Z,101217.54
2019-03-29T12:20:36.390Z,101219.81
2019-03-29T12:23:05.760Z,101215.07
2019-03-29T12:25:33.286Z,101208.17
2019-03-29T12:28:00.832Z,101204.36
2019-03-29T12:30:32.581Z,101205.27
2019-03-29T12:33:01.426Z,101204.41
2019-03-29T12:35:28.958Z,101197.39
2019-03-29T12:37:59.316Z,101196.62
2019-03-29T12:40:29.921Z,101183.58
2019-03-29T12:43:00.954Z,101177.23
2019-03-29T12:45:28.799Z,101177.77
2019-03-29T12:47:57.695Z,101177.77
2019-03-29T12:50:25.361Z,101177.45
2019-03-29T12:52:53.193Z,101166.89
2019-03-29T12:55:20.719Z,101165.27
2019-03-29T12:57:51.150Z,101157.86
2019-03-29T13:00:26.732Z,101162.25
2019-03-29T13:02:54.300Z,101152.90
2019-03-29T13:05:21.981Z,101153.19
2019-03-29T13:07:52.958Z,101153.19
2019-03-29T13:10:21.904Z,101146.28
2019-03-29T13:12:51.822Z,101143.98
2019-03-29T13:15:19.281Z,101146.98
2019-03-29T13:17:46.838Z,101139.34
2019-03-29T13:20:14.507Z,101130.80
2019-03-29T13:22:42.724Z,101140.52
2019-03-29T13:25:10.296Z,101137.84
2019-03-29T13:27:38.988Z,101137.84
2019-03-29T13:30:06.854Z,101131.95
2019-03-29T13:32:34.701Z,101130.02
2019-03-29T13:35:02.305Z,101124.47
2019-03-29T13:37:30.141Z,101120.89
2019-03-29T13:40:00.033Z,101121.88
2019-03-29T13:42:29.408Z,101121.91
2019-03-29T13:44:57.284Z,101115.45
2019-03-29T13:47:24.754Z,101111.26
2019-03-29T13:49:55.455Z,101107.17
2019-03-29T13:52:23.290Z,101102.80
2019-03-29T13:54:56.323Z,101101.47
2019-03-29T13:57:24.309Z,101095.86
2019-03-29T13:59:53.415Z,101100.63
2019-03-29T14:02:24.040Z,101094.31
2019-03-29T14:04:51.625Z,101079.38
2019-03-29T14:07:19.479Z,101079.38
2019-03-29T14:09:47.112Z,101079.37
2019-03-29T14:12:14.808Z,101075.78
2019-03-29T14:14:42.650Z,101066.78
2019-03-29T14:17:10.263Z,101060.87
2019-03-29T14:19:42.018Z,101062.91
2019-03-29T14:22:09.638Z,101058.50
2019-03-29T14:24:37.173Z,101055.45
2019-03-29T14:27:04.987Z,101051.72
2019-03-29T14:29:32.590Z,101050.17
2019-03-29T14:32:00.203Z,101059.10
2019-03-29T14:34:28.107Z,101050.09
2019-03-29T14:36:59.090Z,101046.14
2019-03-29T14:39:25.070Z,101039.67
2019-03-29T14:41:52.986Z,101041.11
2019-03-29T14:44:20.584Z,101038.62
2019-03-29T14:46:48.194Z,101035.30
2019-03-29T14:49:21.903Z,101034.41
2019-03-29T14:51:49.810Z,101026.22
2019-03-29T14:54:17.462Z,101017.70
2019-03-29T14:56:45.271Z,101010.86
2019-03-29T14:59:12.933Z,101009.79
2019-03-29T15:01:40.513Z,101013.88
2019-03-29T15:04:08.408Z,100996.54
2019-03-29T15:06:37.232Z,100996.54
2019-03-29T15:09:07.651Z,100999.09
2019-03-29T15:11:36.725Z,100999.09
2019-03-29T15:14:05.841Z,100992.55
2019-03-29T15:16:33.369Z,100989.75
2019-03-29T15:19:01.246Z,100985.17
2019-03-29T15:21:28.820Z,100985.75
2019-03-29T15:23:56.442Z,100978.94
2019-03-29T15:26:28.050Z,100975.98
2019-03-29T15:28:56.461Z,100976.20
2019-03-29T15:31:27.479Z,100968.00
2019-03-29T15:34:04.822Z,100960.82
2019-03-29T15:36:32.353Z,100952.28
2019-03-29T15:38:59.992Z,100959.06
2019-03-29T15:41:29.070Z,100953.56
2019-03-29T15:43:56.668Z,100952.98
2019-03-29T15:46:28.406Z,100952.88
2019-03-29T15:48:59.254Z,100946.20
2019-03-29T15:51:33.180Z,100939.03
2019-03-29T15:54:07.170Z,100940.78
2019-03-29T15:56:37.227Z,100934.73
2019-03-29T15:59:07.149Z,100933.02
2019-03-29T16:01:35.220Z,100925.50
2019-03-29T16:04:02.873Z,100924.53
2019-03-29T16:06:30.759Z,100919.80
2019-03-29T16:08:58.689Z,100924.57
2019-03-29T16:11:29.567Z,100927.19
2019-03-29T16:13:57.156Z,100926.64
2019-03-29T16:16:27.484Z,100934.24
2019-03-29T16:18:55.412Z,100933.32
2019-03-29T16:21:23.067Z,100930.43
2019-03-29T16:23:51.005Z,100923.73
2019-03-29T16:26:22.127Z,100924.69
2019-03-29T16:28:50.704Z,100918.19
2019-03-29T16:31:18.345Z,100918.70
2019-03-29T16:33:45.929Z,100919.42
2019-03-29T16:36:13.879Z,100919.62
2019-03-29T16:38:41.519Z,100914.58
2019-03-29T16:41:15.384Z,100914.98
2019-03-29T16:43:43.212Z,100913.39
2019-03-29T16:46:10.939Z,100909.86
2019-03-29T16:48:38.830Z,100905.23
2019-03-29T16:51:10.419Z,100910.25
2019-03-29T16:53:39.806Z,100906.31
2019-03-29T16:56:07.541Z,100905.75
2019-03-29T16:58:35.442Z,100906.05
2019-03-29T17:01:10.293Z,100904.00
2019-03-29T17:03:38.141Z,100907.78
2019-03-29T17:06:05.741Z,100903.89
2019-03-29T17:08:33.279Z,100902.05
2019-03-29T17:11:01.114Z,100909.23
2019-03-29T17:13:28.643Z,100904.44
2019-03-29T17:16:02.152Z,100904.92
2019-03-29T17:18:29.738Z,100904.92
2019-03-29T17:20:57.534Z,100909.86
2019-03-29T17:23:28.351Z,100906.17
2019-03-29T17:25:56.357Z,100911.34
2019-03-29T17:28:23.898Z,100909.95
2019-03-29T17:30:57.259Z,100909.95
2019-03-29T17:33:25.183Z,100911.17
2019-03-29T17:35:55.884Z,100911.17
2019-03-29T17:38:23.607Z,100913.29
2019-03-29T17:40:53.290Z,100914.20
2019-03-29T17:43:20.884Z,100914.20
2019-03-29T17:45:55.784Z,100913.97
2019-03-29T17:48:26.682Z,100913.97
2019-03-29T17:50:54.249Z,100922.05
2019-03-29T17:53:21.883Z,100924.80
2019-03-29T17:55:49.730Z,100922.97
2019-03-29T17:58:17.384Z,100924.69
2019-03-29T18:00:45.380Z,100924.73
2019-03-29T18:03:13.335Z,100921.70
2019-03-29T18:05:40.944Z,100929.20
2019-03-29T18:08:08.581Z,100929.20
2019-03-29T18:10:36.472Z,100930.44
2019-03-29T18:13:04.140Z,100930.44
2019-03-29T18:15:48.911Z,100936.87
2019-03-29T18:18:40.250Z,100925.19
2019-03-29T18:20:52.053Z,100929.94
2019-03-29T18:23:24.963Z,100928.20
2019-03-29T18:25:52.344Z,100929.30
2019-03-29T18:28:22.940Z,100928.64
2019-03-29T18:30:52.991Z,100928.53
2019-03-29T18:33:20.900Z,100928.53
2019-03-29T18:35:51.327Z,100937.76
2019-03-29T18:38:19.238Z,100935.80
2019-03-29T18:40:47.118Z,100930.18
2019-03-29T18:43:31.984Z,100930.18
2019-03-29T18:45:59.652Z,100931.83
2019-03-29T18:48:27.643Z,100935.80
2019-03-29T18:50:55.270Z,100935.80
2019-03-29T18:53:22.852Z,100931.78
2019-03-29T18:55:54.619Z,100930.75
2019-03-29T18:58:24.100Z,100921.48
2019-03-29T19:00:51.701Z,100921.48
2019-03-29T19:03:19.596Z,100925.92
2019-03-29T19:05:48.115Z,100925.92
2019-03-29T19:08:15.728Z,100925.43
2019-03-29T19:10:45.856Z,100924.20
2019-03-29T19:13:13.791Z,100925.88
2019-03-29T19:15:41.373Z,100924.33
2019-03-29T19:18:09.216Z,100924.33
2019-03-29T19:20:36.788Z,100926.98
2019-03-29T19:23:09.421Z,100926.68
2019-03-29T19:25:37.388Z,100925.42
2019-03-29T19:28:07.925Z,100926.83
2019-03-29T19:30:38.602Z,100928.13
2019-03-29T19:33:06.167Z,100928.73
2019-03-29T19:35:41.052Z,100928.73
2019-03-29T19:38:08.954Z,100926.02
2019-03-29T19:40:36.560Z,100924.65
2019-03-29T19:43:06.504Z,100919.14
2019-03-29T19:45:34.668Z,100920.34
2019-03-29T19:48:22.390Z,100918.96
2019-03-29T19:50:55.486Z,100914.89
2019-03-29T19:53:34.444Z,100914.89
2019-03-29T19:56:04.235Z,100916.83
2019-03-29T19:58:35.228Z,100916.83
2019-03-29T20:01:11.729Z,100913.84
2019-03-29T20:03:46.624Z,100915.31
2019-03-29T20:06:14.480Z,100913.56
2019-03-29T20:08:42.119Z,100913.56
2019-03-29T20:11:17.068Z,100912.41
2019-03-29T20:13:47.731Z,100911.31
2019-03-29T20:16:15.367Z,100911.31
2019-03-29T20:18:48.972Z,100910.66
2019-03-29T20:21:16.812Z,100911.34
2019-03-29T20:23:45.631Z,100908.41
2019-03-29T20:26:13.131Z,100917.86
2019-03-29T20:28:44.087Z,100917.22
2019-03-29T20:31:11.714Z,100926.86
2019-03-29T20:33:39.290Z,100919.64
2019-03-29T20:36:07.118Z,100911.45
2019-03-29T20:38:34.745Z,100917.05
2019-03-29T20:41:02.457Z,100917.05
2019-03-29T20:43:30.296Z,100911.28
2019-03-29T20:46:01.028Z,100910.16
2019-03-29T20:48:28.627Z,100907.27
2019-03-29T20:50:56.548Z,100912.70
2019-03-29T20:53:37.302Z,100915.88
2019-03-29T20:56:07.849Z,100913.59
2019-03-29T20:58:37.137Z,100903.66
2019-03-29T21:01:07.202Z,100903.66
2019-03-29T21:03:35.127Z,100908.49
2019-03-29T21:06:02.808Z,100908.49
2019-03-29T21:08:30.446Z,100913.94
2019-03-29T21:11:02.414Z,100907.89
2019-03-29T21:13:30.005Z,100914.74
2019-03-29T21:15:57.579Z,100907.34
2019-03-29T21:18:25.136Z,100907.34
2019-03-29T21:20:55.296Z,100903.56
2019-03-29T21:23:23.114Z,100904.52
2019-03-29T21:26:10.700Z,100904.16
2019-03-29T21:28:47.647Z,100903.66
2019-03-29T21:31:16.256Z,100909.44
2019-03-29T21:33:43.859Z,100909.88
2019-03-29T21:36:17.930Z,100909.21
2019-03-29T21:38:46.936Z,100902.84
2019-03-29T21:41:14.805Z,100902.84
2019-03-29T21:43:42.387Z,100900.55
2019-03-29T21:46:09.963Z,100900.55
2019-03-29T21:48:39.905Z,100897.81
2019-03-29T21:51:07.507Z,100896.69
2019-03-29T21:53:35.340Z,100896.69
2019-03-29T21:56:03.171Z,100893.05
2019-03-29T21:58:30.644Z,100893.05
2019-03-29T22:00:58.589Z,100891.41
2019-03-29T22:03:26.527Z,100892.16
2019-03-29T22:05:54.130Z,100885.19
2019-03-29T22:08:22.654Z,100888.58
2019-03-29T22:10:50.200Z,100891.73
2019-03-29T22:13:17.838Z,100891.73
2019-03-29T22:15:45.663Z,100888.55
2019-03-29T22:18:14.669Z,100881.91
2019-03-29T22:20:42.215Z,100882.48
2019-03-29T22:23:14.198Z,100880.40
2019-03-29T22:25:41.767Z,100883.70
2019-03-29T22:28:09.326Z,100883.70
2019-03-29T22:30:45.975Z,100880.72
2019-03-29T22:33:13.988Z,100871.97
2019-03-29T22:35:41.531Z,100871.97
2019-03-29T22:38:09.306Z,100875.88
2019-03-29T22:40:37.261Z,100875.88
2019-03-29T22:43:07.725Z,100868.10
2019-03-29T22:45:35.587Z,100867.80
2019-03-29T22:48:07.322Z,100870.34
2019-03-29T22:50:36.296Z,100861.05
2019-03-29T22:53:04.083Z,100861.58
2019-03-29T22:55:31.671Z,100861.58
2019-03-29T22:57:59.187Z,100857.75
2019-03-29T23:00:28.711Z,100861.13
2019-03-29T23:02:57.609Z,100861.13
2019-03-29T23:05:26.539Z,100855.62
2019-03-29T23:07:55.746Z,100848.53
2019-03-29T23:10:23.300Z,100848.53
2019-03-29T23:12:50.901Z,100836.14
2019-03-29T23:15:18.518Z,100836.14
2019-03-29T23:17:46.353Z,100832.42
2019-03-29T23:20:13.940Z,100831.89
2019-03-29T23:22:41.508Z,100826.31
2019-03-29T23:25:11.427Z,100828.28
2019-03-29T23:27:41.765Z,100830.97
2019-03-29T23:30:09.390Z,100830.97
2019-03-29T23:32:37.233Z,100826.03
2019-03-29T23:35:04.844Z,100821.73
2019-03-29T23:37:32.438Z,100823.39
2019-03-29T23:40:04.959Z,100823.39
2019-03-29T23:42:32.586Z,100815.84
2019-03-29T23:45:03.154Z,100812.76
2019-03-29T23:47:31.008Z,100815.77
2019-03-29T23:49:58.544Z,100814.84
2019-03-29T23:52:26.003Z,100814.41
2019-03-29T23:54:53.576Z,100813.89
2019-03-29T23:57:21.434Z,100813.83
2019-03-29T23:59:48.921Z,100811.42
